Time;durP1;ratioP1;P1;durP2;ratioP2;P2;SDS_P1;SDS_P2;PMS_P1;PMS_P2;Temp;Humidity;BMP_temperature;BMP_pressure;BME280_temperature;BME280_humidity;BME280_pressure;Samples;Min_cycle;Max_cycle;Signal;HPM_P1;HPM_P2
2023/02/13 00:01:48;;;;;;;25.10;13.40;;;;;;;4.96;84.26;101926.76;135091;1254;107762;-73
2023/02/13 00:04:54;;;;;;;25.80;13.10;;;;;;;5.04;84.42;101929.38;135083;1254;107391;-73
2023/02/13 00:07:59;;;;;;;30.10;14.70;;;;;;;5.10;83.91;101927.64;135077;1254;107493;-73
2023/02/13 00:11:05;;;;;;;25.70;13.40;;;;;;;5.14;84.39;101928.00;135075;1254;107517;-73
2023/02/13 00:14:10;;;;;;;21.90;12.20;;;;;;;5.14;84.33;101922.86;135042;1254;106542;-73
2023/02/13 00:17:16;;;;;;;23.50;12.10;;;;;;;5.10;85.20;101925.86;135086;1254;107488;-73
2023/02/13 00:20:22;;;;;;;25.90;11.90;;;;;;;5.05;84.86;101926.50;135043;1254;107542;-74
2023/02/13 00:23:28;;;;;;;23.40;12.80;;;;;;;5.07;84.71;101928.34;135069;1254;107533;-73
2023/02/13 00:26:34;;;;;;;24.70;12.60;;;;;;;5.10;84.58;101928.53;135019;1254;107601;-74
2023/02/13 00:29:39;;;;;;;23.40;12.70;;;;;;;5.18;84.34;101923.05;135047;1254;107472;-73
2023/02/13 00:32:45;;;;;;;24.90;13.10;;;;;;;5.23;84.56;101919.60;135005;1254;107514;-73
2023/02/13 00:35:50;;;;;;;18.00;10.40;;;;;;;5.23;84.33;101899.46;135084;1254;107564;-73
2023/02/13 00:38:56;;;;;;;20.90;10.10;;;;;;;5.24;84.11;101898.93;135074;1254;105891;-73
2023/02/13 00:42:02;;;;;;;27.80;11.80;;;;;;;5.27;84.04;101889.41;135054;1254;106429;-73
2023/02/13 00:45:08;;;;;;;25.70;11.70;;;;;;;5.30;84.18;101889.05;135100;1254;105829;-73
2023/02/13 00:48:14;;;;;;;28.60;13.90;;;;;;;5.32;84.28;101883.48;135064;1254;106425;-73
2023/02/13 00:51:21;;;;;;;25.10;12.80;;;;;;;5.33;84.03;101880.95;135091;1254;107320;-73
2023/02/13 00:54:27;;;;;;;28.10;14.30;;;;;;;5.35;84.06;101881.60;134997;1254;107201;-73
2023/02/13 00:57:32;;;;;;;22.70;11.90;;;;;;;5.33;84.10;101878.70;135036;1254;105954;-72
2023/02/13 01:00:39;;;;;;;20.20;11.00;;;;;;;5.30;84.24;101877.97;135115;1254;107507;-75
2023/02/13 01:03:45;;;;;;;26.90;13.40;;;;;;;5.30;84.38;101876.54;134998;1254;107552;-73
2023/02/13 01:06:50;;;;;;;31.80;14.10;;;;;;;5.32;84.36;101881.38;135097;1254;107518;-73
2023/02/13 01:09:55;;;;;;;31.80;14.20;;;;;;;5.36;84.28;101884.35;134968;1254;107621;-75
2023/02/13 01:13:01;;;;;;;25.00;13.40;;;;;;;5.37;84.18;101888.17;135075;1254;107561;-73
2023/02/13 01:16:07;;;;;;;24.30;12.70;;;;;;;5.36;84.18;101889.10;135117;1254;106826;-73
2023/02/13 01:19:13;;;;;;;22.60;12.00;;;;;;;5.34;84.19;101887.27;135087;1254;107529;-73
2023/02/13 01:22:18;;;;;;;18.30;10.00;;;;;;;5.30;84.23;101885.54;135016;1254;107666;-73
2023/02/13 01:25:24;;;;;;;23.00;11.50;;;;;;;5.30;84.38;101888.38;135070;1254;107251;-74
2023/02/13 01:28:30;;;;;;;20.30;11.10;;;;;;;5.32;84.37;101886.30;135053;1254;107379;-73
2023/02/13 01:31:35;;;;;;;17.90;10.70;;;;;;;5.34;84.19;101881.99;134992;1254;107506;-73
2023/02/13 01:34:41;;;;;;;18.50;10.60;;;;;;;5.33;84.25;101879.38;135095;1254;107528;-73
2023/02/13 01:37:46;;;;;;;21.30;11.20;;;;;;;5.34;84.28;101880.23;135062;1254;107345;-73
2023/02/13 01:40:54;;;;;;;16.40;9.90;;;;;;;5.34;84.17;101880.77;134963;1254;107552;-73
2023/02/13 01:44:01;;;;;;;18.20;10.30;;;;;;;5.33;84.31;101876.19;135046;1254;107327;-74
2023/02/13 01:47:07;;;;;;;17.90;9.80;;;;;;;5.33;84.22;101874.61;135036;1254;108688;-73
2023/02/13 01:50:17;;;;;;;19.20;10.30;;;;;;;5.37;84.43;101869.82;135100;1254;107499;-73
2023/02/13 01:53:27;;;;;;;20.90;12.00;;;;;;;5.40;84.28;101871.23;135079;1254;108667;-74
2023/02/13 01:56:37;;;;;;;19.60;10.30;;;;;;;5.41;84.30;101868.18;135068;1254;108597;-74
2023/02/13 01:59:47;;;;;;;36.70;20.80;;;;;;;5.42;84.42;101869.21;135111;1254;107389;-73
2023/02/13 02:03:00;;;;;;;21.10;11.50;;;;;;;5.41;84.22;101866.61;135109;1254;107533;-73
2023/02/13 02:06:10;;;;;;;17.20;9.00;;;;;;;5.40;84.55;101870.01;135009;1254;107670;-73
2023/02/13 02:09:21;;;;;;;26.70;10.90;;;;;;;5.40;84.41;101867.86;135104;1254;106531;-73
2023/02/13 02:12:32;;;;;;;27.30;10.70;;;;;;;5.43;84.45;101865.80;135004;1254;108551;-73
2023/02/13 02:15:38;;;;;;;25.90;11.80;;;;;;;5.47;84.23;101868.23;135093;1254;106580;-73
2023/02/13 02:18:43;;;;;;;24.00;11.30;;;;;;;5.49;84.17;101866.38;135003;1254;108704;-73
2023/02/13 02:22:13;;;;;;;24.40;11.30;;;;;;;5.49;84.09;101862.70;134986;1254;108044;-73
2023/02/13 02:25:56;;;;;;;27.20;12.30;;;;;;;5.46;84.29;101865.45;134965;1254;106564;-73
2023/02/13 02:29:35;;;;;;;18.20;8.70;;;;;;;5.43;84.21;101867.41;134898;1254;106272;-73
2023/02/13 02:33:00;;;;;;;24.20;11.30;;;;;;;5.43;84.19;101869.52;134839;1256;107760;-73
2023/02/13 02:36:22;;;;;;;21.60;10.20;;;;;;;5.46;84.20;101873.95;134881;1255;105696;-73
2023/02/13 02:39:35;;;;;;;21.30;10.40;;;;;;;5.50;84.39;101869.51;134788;1255;108689;-73
2023/02/13 02:42:50;;;;;;;22.30;11.50;;;;;;;5.50;84.07;101870.91;134824;1256;107505;-73
2023/02/13 02:46:04;;;;;;;26.50;12.90;;;;;;;5.48;84.17;101874.16;134961;1255;105950;-74
2023/02/13 02:52:47;;;;;;;17.00;10.00;;;;;;;5.47;84.28;101877.75;134929;1255;106732;-73
2023/02/13 02:56:01;;;;;;;17.70;8.90;;;;;;;5.46;84.30;101879.38;134852;1255;108121;-73
2023/02/13 03:06:10;;;;;;;17.60;10.10;;;;;;;5.49;84.13;101883.51;134807;1255;107485;-73
2023/02/13 03:23:30;;;;;;;14.40;8.50;;;;;;;5.41;84.34;101889.92;134940;1255;107630;-73
2023/02/13 03:26:49;;;;;;;17.50;9.20;;;;;;;5.40;84.59;101888.52;134925;1255;107234;-73
2023/02/13 03:30:07;;;;;;;17.40;9.40;;;;;;;5.42;84.33;101892.83;134988;1254;108706;-73
2023/02/13 03:33:26;;;;;;;17.60;8.90;;;;;;;5.41;84.25;101894.67;135010;1254;107446;-73
2023/02/13 03:40:09;;;;;;;54.40;21.10;;;;;;;5.40;84.51;101892.09;135003;1254;107646;-73
2023/02/13 03:43:18;;;;;;;222.20;66.60;;;;;;;5.34;84.59;101888.49;135031;1254;107530;-71
2023/02/13 03:46:26;;;;;;;90.00;30.60;;;;;;;5.32;84.69;101887.20;135072;1254;106723;-71
2023/02/13 03:53:03;;;;;;;76.00;27.20;;;;;;;5.33;84.75;101887.33;135056;1254;106309;-72
2023/02/13 03:59:38;;;;;;;40.60;15.80;;;;;;;5.31;84.56;101884.96;135043;1254;105621;-70
2023/02/13 04:02:52;;;;;;;25.90;11.90;;;;;;;5.30;84.70;101886.95;135084;1254;107285;-72
2023/02/13 04:06:06;;;;;;;193.70;52.30;;;;;;;5.23;85.04;101881.83;135034;1254;106941;-70
2023/02/13 04:09:11;;;;;;;83.10;30.40;;;;;;;5.23;85.20;101881.66;134983;1255;107468;-70
2023/02/13 04:12:25;;;;;;;70.20;25.10;;;;;;;5.23;84.98;101876.75;135016;1254;107576;-71
2023/02/13 04:15:37;;;;;;;92.40;39.60;;;;;;;5.25;85.02;101878.95;135069;1254;107727;-70
2023/02/13 04:18:44;;;;;;;28.50;14.30;;;;;;;5.29;84.78;101877.81;135016;1254;107534;-71
2023/02/13 04:21:55;;;;;;;35.60;15.20;;;;;;;5.32;85.08;101887.38;135053;1254;106492;-71
2023/02/13 04:25:01;;;;;;;305.20;82.60;;;;;;;5.29;84.87;101883.29;135067;1254;106070;-70
2023/02/13 04:28:07;;;;;;;1037.90;315.60;;;;;;;5.28;84.83;101885.42;135000;1254;107574;-70
2023/02/13 04:31:13;;;;;;;502.20;167.90;;;;;;;5.28;84.93;101880.70;135024;1254;107511;-71
2023/02/13 04:34:19;;;;;;;34.60;16.10;;;;;;;5.26;85.09;101883.25;135039;1256;107568;-70
2023/02/13 04:37:24;;;;;;;43.20;18.40;;;;;;;5.26;84.98;101883.61;135041;1255;107305;-70
2023/02/13 04:40:30;;;;;;;112.90;57.20;;;;;;;5.32;85.09;101888.23;135066;1254;105691;-70
2023/02/13 04:43:36;;;;;;;105.90;54.30;;;;;;;5.36;84.96;101888.77;135048;1254;107698;-71
2023/02/13 04:46:41;;;;;;;61.50;31.40;;;;;;;5.35;84.86;101888.27;135119;1254;108578;-70
2023/02/13 04:49:47;;;;;;;48.00;23.50;;;;;;;5.35;84.69;101887.94;134998;1254;106710;-73
2023/02/13 04:52:54;;;;;;;29.60;16.20;;;;;;;5.31;84.76;101890.94;135079;1254;107759;-70
2023/02/13 04:56:00;;;;;;;22.40;12.50;;;;;;;5.32;84.76;101895.13;135053;1254;106715;-70
2023/02/13 04:59:05;;;;;;;235.00;85.30;;;;;;;5.37;84.93;101893.51;135037;1255;107324;-71
2023/02/13 05:02:11;;;;;;;276.70;87.30;;;;;;;5.38;84.91;101893.42;135006;1254;107520;-71
2023/02/13 05:05:17;;;;;;;135.40;39.30;;;;;;;5.39;85.09;101894.80;135001;1254;106269;-71
2023/02/13 05:08:23;;;;;;;415.50;111.20;;;;;;;5.38;84.94;101903.29;135028;1254;107533;-71
2023/02/13 05:11:28;;;;;;;344.10;81.70;;;;;;;5.34;84.91;101902.45;134963;1256;108578;-72
2023/02/13 05:14:34;;;;;;;631.20;179.60;;;;;;;5.31;85.07;101908.60;135076;1254;107296;-71
2023/02/13 05:17:39;;;;;;;569.90;155.20;;;;;;;5.31;85.03;101902.06;135040;1256;107506;-71
2023/02/13 05:23:21;;;;;;;1306.60;438.40;;;;;;;5.35;85.37;101900.64;135036;1254;107748;-71
2023/02/13 05:24:11;;;;;;;1207.30;411.30;;;;;;;5.36;84.97;101899.16;134993;1254;107923;-71
2023/02/13 05:27:16;;;;;;;904.00;294.70;;;;;;;5.36;85.10;101901.48;135020;1255;107207;-71
2023/02/13 05:30:22;;;;;;;493.80;134.40;;;;;;;5.32;85.08;101905.74;135065;1254;107611;-71
2023/02/13 05:33:28;;;;;;;975.00;282.80;;;;;;;5.25;85.23;101903.24;135026;1256;107500;-71
2023/02/13 05:36:33;;;;;;;427.10;100.90;;;;;;;5.21;85.03;101906.31;135024;1254;107422;-71
2023/02/13 05:39:39;;;;;;;681.80;192.10;;;;;;;5.16;85.07;101906.39;135017;1254;107968;-73
2023/02/13 05:42:45;;;;;;;370.30;96.20;;;;;;;5.21;85.18;101909.99;135025;1254;109279;-71
2023/02/13 05:45:51;;;;;;;346.00;99.90;;;;;;;5.24;85.22;101912.33;135046;1255;109467;-71
2023/02/13 05:48:56;;;;;;;533.80;179.00;;;;;;;5.24;85.15;101904.89;135028;1254;107559;-71
2023/02/13 05:52:02;;;;;;;224.50;68.70;;;;;;;5.27;85.14;101907.42;135032;1254;107501;-71
2023/02/13 05:55:08;;;;;;;478.30;187.90;;;;;;;5.25;85.33;101905.88;135081;1254;107547;-71
2023/02/13 05:58:14;;;;;;;335.90;144.60;;;;;;;5.25;85.38;101907.12;135039;1254;107498;-71
2023/02/13 06:01:19;;;;;;;358.50;169.80;;;;;;;5.32;85.32;101910.85;135039;1254;107583;-71
2023/02/13 06:04:25;;;;;;;347.20;165.60;;;;;;;5.36;85.27;101908.55;135039;1254;107567;-72
2023/02/13 06:07:30;;;;;;;93.90;45.80;;;;;;;5.40;85.25;101906.23;135006;1256;107556;-71
2023/02/13 06:10:36;;;;;;;41.10;21.40;;;;;;;5.41;85.24;101914.98;135069;1254;106944;-71
2023/02/13 06:13:41;;;;;;;33.80;19.90;;;;;;;5.37;85.24;101919.60;135044;1255;107634;-71
2023/02/13 06:16:47;;;;;;;25.50;14.60;;;;;;;5.35;85.17;101922.34;135044;1254;106440;-71
2023/02/13 06:19:53;;;;;;;18.50;10.90;;;;;;;5.32;85.37;101920.35;135034;1255;109279;-71
2023/02/13 06:22:58;;;;;;;17.90;9.30;;;;;;;5.33;85.11;101916.80;135049;1254;107525;-71
2023/02/13 06:26:06;;;;;;;17.60;10.10;;;;;;;5.33;85.28;101912.02;135052;1256;107373;-71
2023/02/13 06:29:11;;;;;;;17.30;10.10;;;;;;;5.35;85.47;101903.79;135111;1254;107269;-71
2023/02/13 06:32:17;;;;;;;16.70;9.90;;;;;;;5.40;85.28;101911.65;135029;1254;107520;-71
2023/02/13 06:35:22;;;;;;;18.40;10.40;;;;;;;5.43;85.15;101911.16;135065;1254;107569;-70
2023/02/13 06:38:28;;;;;;;17.50;11.80;;;;;;;5.46;85.17;101916.65;135025;1255;105486;-72
2023/02/13 06:41:34;;;;;;;17.30;9.50;;;;;;;5.46;85.16;101916.29;135033;1254;107509;-71
2023/02/13 06:44:39;;;;;;;17.80;8.10;;;;;;;5.47;85.16;101913.42;135048;1254;107587;-71
2023/02/13 06:47:47;;;;;;;16.80;9.10;;;;;;;5.48;85.25;101910.73;135021;1254;106542;-71
2023/02/13 06:50:53;;;;;;;16.40;9.60;;;;;;;5.54;85.09;101912.20;135056;1255;107507;-71
2023/02/13 06:53:58;;;;;;;18.00;9.30;;;;;;;5.59;85.04;101908.44;135019;1254;106745;-71
2023/02/13 06:57:04;;;;;;;18.40;9.60;;;;;;;5.59;84.98;101912.29;135028;1254;107355;-71
2023/02/13 07:00:12;;;;;;;15.00;8.70;;;;;;;5.60;84.91;101906.92;135042;1254;107506;-71
2023/02/13 07:03:18;;;;;;;17.10;9.10;;;;;;;5.63;85.11;101907.86;135053;1254;107426;-70
2023/02/13 07:06:23;;;;;;;14.20;7.80;;;;;;;5.61;84.71;101910.03;135082;1254;109389;-71
2023/02/13 07:09:30;;;;;;;14.70;7.80;;;;;;;5.59;84.83;101913.20;135058;1254;107520;-72
2023/02/13 07:12:36;;;;;;;14.70;7.70;;;;;;;5.60;84.66;101916.63;135036;1254;107240;-71
2023/02/13 07:15:42;;;;;;;14.40;7.80;;;;;;;5.60;84.55;101913.83;135045;1255;106613;-70
2023/02/13 07:18:47;;;;;;;16.00;8.30;;;;;;;5.65;84.77;101921.33;135059;1254;105506;-71
2023/02/13 07:21:53;;;;;;;15.00;8.60;;;;;;;5.70;84.59;101921.24;135060;1254;107409;-71
2023/02/13 07:24:59;;;;;;;86.90;35.50;;;;;;;5.70;84.84;101928.48;135038;1254;107552;-73
2023/02/13 07:28:06;;;;;;;335.00;110.80;;;;;;;5.73;84.65;101927.08;135050;1254;107613;-71
2023/02/13 07:31:12;;;;;;;99.20;30.70;;;;;;;5.76;84.36;101931.15;135027;1254;107252;-70
2023/02/13 07:34:18;;;;;;;108.80;31.00;;;;;;;5.78;84.44;101933.73;135050;1254;107651;-71
2023/02/13 07:37:23;;;;;;;33.80;12.90;;;;;;;5.78;84.46;101928.05;135041;1254;107540;-71
2023/02/13 07:40:29;;;;;;;164.60;43.10;;;;;;;5.85;84.46;101922.21;135000;1254;107228;-71
2023/02/13 07:43:34;;;;;;;538.30;162.60;;;;;;;5.99;84.79;101913.03;135026;1255;107464;-71
2023/02/13 07:46:40;;;;;;;817.00;273.10;;;;;;;6.12;84.55;101921.35;135023;1254;109287;-72
2023/02/13 07:49:45;;;;;;;769.40;256.20;;;;;;;6.22;84.73;101922.58;135079;1254;107699;-71
2023/02/13 07:52:56;;;;;;;754.30;251.80;;;;;;;6.25;84.53;101915.69;135029;1254;107541;-70
2023/02/13 07:56:06;;;;;;;353.60;90.90;;;;;;;6.25;84.36;101917.22;134988;1254;107511;-71
2023/02/13 07:59:13;;;;;;;546.90;180.10;;;;;;;6.25;84.44;101917.27;135031;1254;108692;-71
2023/02/13 08:02:18;;;;;;;59.10;21.90;;;;;;;6.25;84.46;101917.08;135080;1254;107567;-71
2023/02/13 08:05:23;;;;;;;241.70;77.90;;;;;;;6.23;84.57;101913.28;135028;1254;107668;-71
2023/02/13 08:08:29;;;;;;;228.40;76.20;;;;;;;6.21;84.47;101918.37;135091;1254;108701;-71
2023/02/13 08:14:54;;;;;;;333.70;156.10;;;;;;;6.23;85.03;101913.30;135028;1254;107514;-71
2023/02/13 08:18:00;;;;;;;57.80;30.30;;;;;;;6.23;85.11;101913.29;135050;1254;107489;-71
2023/02/13 08:21:06;;;;;;;48.90;25.70;;;;;;;6.25;85.82;101912.49;134991;1254;108210;-70
2023/02/13 08:24:11;;;;;;;29.20;15.00;;;;;;;6.28;85.92;101918.84;135089;1254;107533;-71
2023/02/13 08:27:17;;;;;;;19.20;11.50;;;;;;;6.28;85.80;101916.75;135020;1254;107593;-71
2023/02/13 08:30:23;;;;;;;13.40;9.00;;;;;;;6.30;85.89;101919.48;135059;1255;105399;-71
2023/02/13 08:33:30;;;;;;;13.30;8.50;;;;;;;6.25;86.17;101914.29;135053;1254;107661;-71
2023/02/13 08:36:35;;;;;;;13.20;8.50;;;;;;;6.30;86.09;101915.56;135034;1254;107666;-71
2023/02/13 08:39:41;;;;;;;14.90;9.30;;;;;;;6.38;86.34;101911.80;135004;1258;107563;-71
2023/02/13 08:42:46;;;;;;;12.90;7.80;;;;;;;6.42;86.13;101912.45;135019;1254;107544;-71
2023/02/13 08:45:52;;;;;;;10.50;7.70;;;;;;;6.44;85.88;101911.29;135041;1254;107457;-71
2023/02/13 08:48:57;;;;;;;11.20;7.80;;;;;;;6.51;86.05;101902.58;135036;1254;107383;-71
2023/02/13 08:52:03;;;;;;;21.00;15.50;;;;;;;6.62;86.20;101899.64;135092;1254;107515;-71
2023/02/13 08:55:09;;;;;;;12.70;8.30;;;;;;;6.70;85.92;101898.67;135006;1257;107567;-71
2023/02/13 08:58:14;;;;;;;10.90;7.20;;;;;;;6.76;85.75;101894.11;135030;1256;108099;-71
2023/02/13 09:01:20;;;;;;;10.30;6.30;;;;;;;6.78;85.50;101890.46;135008;1254;107606;-71
2023/02/13 09:04:26;;;;;;;16.40;9.50;;;;;;;6.75;85.66;101890.79;135077;1255;107615;-72
2023/02/13 09:07:32;;;;;;;10.00;7.30;;;;;;;6.76;86.00;101894.08;135036;1254;106286;-71
2023/02/13 09:10:38;;;;;;;10.50;7.20;;;;;;;6.82;85.79;101892.68;135059;1255;106765;-72
2023/02/13 09:13:44;;;;;;;12.10;7.50;;;;;;;6.88;85.51;101893.20;135069;1254;107312;-72
2023/02/13 09:16:49;;;;;;;11.30;7.40;;;;;;;6.80;85.38;101888.02;134988;1254;107526;-72
2023/02/13 09:19:55;;;;;;;11.00;7.20;;;;;;;6.81;85.70;101882.30;134967;1254;108530;-72
2023/02/13 09:23:00;;;;;;;9.60;6.70;;;;;;;6.74;85.38;101882.04;135006;1254;108139;-71
2023/02/13 09:26:08;;;;;;;11.90;8.00;;;;;;;6.65;85.61;101884.80;134973;1257;106256;-72
2023/02/13 09:29:14;;;;;;;12.50;7.70;;;;;;;6.67;85.77;101881.13;134927;1254;107426;-72
2023/02/13 09:32:19;;;;;;;13.60;8.90;;;;;;;6.82;85.62;101881.35;135026;1254;109289;-72
2023/02/13 09:35:25;;;;;;;12.00;8.80;;;;;;;7.00;85.65;101881.92;134941;1254;108607;-72
2023/02/13 09:38:31;;;;;;;12.70;8.10;;;;;;;7.04;84.34;101880.60;135035;1257;107333;-72
2023/02/13 09:41:39;;;;;;;11.80;8.00;;;;;;;6.97;84.75;101876.59;134925;1254;107509;-72
2023/02/13 09:44:46;;;;;;;15.00;8.60;;;;;;;6.90;83.88;101873.30;134939;1257;107380;-73
2023/02/13 09:47:52;;;;;;;11.30;8.50;;;;;;;6.78;83.72;101877.55;134941;1256;107640;-72
2023/02/13 09:50:58;;;;;;;13.80;9.10;;;;;;;6.67;83.88;101884.16;134949;1255;107577;-72
2023/02/13 09:54:06;;;;;;;18.20;10.80;;;;;;;6.58;84.37;101877.63;134944;1256;107692;-72
2023/02/13 09:57:20;;;;;;;15.90;9.70;;;;;;;6.59;84.77;101881.43;134960;1256;107569;-72
2023/02/13 10:00:32;;;;;;;18.20;10.60;;;;;;;6.60;84.24;101879.08;134956;1256;107275;-72
2023/02/13 10:03:44;;;;;;;11.60;7.90;;;;;;;6.59;83.96;101877.39;134911;1257;107705;-72
2023/02/13 10:07:01;;;;;;;12.60;8.10;;;;;;;6.52;84.27;101887.67;134943;1256;107512;-72
2023/02/13 10:10:19;;;;;;;13.70;8.70;;;;;;;6.44;84.00;101888.14;135027;1254;106814;-72
2023/02/13 10:13:38;;;;;;;10.90;8.00;;;;;;;6.50;84.06;101877.20;135036;1254;107354;-72
2023/02/13 10:16:49;;;;;;;11.50;8.50;;;;;;;6.49;83.70;101880.24;135100;1254;108696;-72
2023/02/13 10:20:00;;;;;;;9.40;7.00;;;;;;;6.52;83.82;101878.80;135031;1254;108117;-72
2023/02/13 10:23:17;;;;;;;9.80;6.70;;;;;;;6.56;83.69;101877.55;135038;1254;107344;-72
2023/02/13 10:26:41;;;;;;;13.60;7.80;;;;;;;6.60;83.42;101879.75;135045;1254;107239;-72
2023/02/13 10:30:08;;;;;;;13.50;7.60;;;;;;;6.73;83.85;101884.55;135058;1254;107581;-72
2023/02/13 10:33:19;;;;;;;9.00;6.30;;;;;;;6.90;83.64;101877.55;135046;1254;108683;-72
2023/02/13 10:36:27;;;;;;;10.30;6.40;;;;;;;6.87;82.35;101881.58;135052;1254;107515;-72
2023/02/13 10:39:33;;;;;;;10.10;5.40;;;;;;;6.88;82.21;101884.71;135083;1254;108856;-72
2023/02/13 10:42:45;;;;;;;7.20;4.50;;;;;;;6.83;82.75;101881.64;135027;1254;107569;-72
2023/02/13 10:46:03;;;;;;;6.50;3.80;;;;;;;6.76;82.57;101887.23;134991;1254;107519;-72
2023/02/13 10:49:25;;;;;;;6.70;4.60;;;;;;;6.80;82.80;101880.60;135049;1254;107610;-72
2023/02/13 10:52:44;;;;;;;6.70;4.30;;;;;;;6.87;82.42;101875.94;135018;1254;106687;-72
2023/02/13 10:56:06;;;;;;;5.80;3.70;;;;;;;6.91;82.81;101867.95;135048;1254;106416;-72
2023/02/13 10:59:44;;;;;;;6.50;4.40;;;;;;;6.90;82.50;101862.49;135056;1254;107394;-72
2023/02/13 11:02:50;;;;;;;6.50;3.90;;;;;;;6.93;82.70;101862.53;135039;1254;107567;-72
2023/02/13 11:05:58;;;;;;;6.40;4.00;;;;;;;6.84;81.70;101859.66;135080;1254;106542;-73
2023/02/13 11:09:04;;;;;;;5.70;3.50;;;;;;;6.81;81.89;101857.23;135040;1254;107375;-72
2023/02/13 11:12:27;;;;;;;7.00;3.40;;;;;;;6.80;82.26;101856.73;135042;1254;107244;-72
2023/02/13 11:15:35;;;;;;;6.10;3.80;;;;;;;6.76;81.47;101857.48;135053;1254;107301;-72
2023/02/13 11:18:49;;;;;;;8.30;5.10;;;;;;;6.77;81.93;101859.23;135070;1254;108033;-72
2023/02/13 11:22:01;;;;;;;41.30;18.60;;;;;;;6.73;81.31;101856.92;135058;1254;107647;-74
2023/02/13 11:25:17;;;;;;;16.30;7.50;;;;;;;6.70;81.77;101858.71;135038;1254;108660;-72
2023/02/13 11:28:24;;;;;;;32.60;13.60;;;;;;;6.61;81.66;101853.77;135043;1254;107558;-72
2023/02/13 11:31:31;;;;;;;170.50;71.80;;;;;;;6.63;82.13;101851.88;135075;1254;107186;-72
2023/02/13 11:34:37;;;;;;;100.30;36.20;;;;;;;6.69;82.46;101850.09;135060;1254;107247;-72
2023/02/13 11:37:42;;;;;;;221.90;63.90;;;;;;;6.81;82.18;101842.71;135025;1254;107598;-73
2023/02/13 11:40:50;;;;;;;16.40;7.40;;;;;;;6.96;82.35;101846.71;135087;1254;107554;-72
2023/02/13 11:44:00;;;;;;;37.10;13.60;;;;;;;7.04;81.03;101847.87;135045;1254;107506;-72
2023/02/13 11:47:06;;;;;;;19.10;7.90;;;;;;;7.02;80.60;101847.98;135056;1254;107587;-72
2023/02/13 11:50:28;;;;;;;22.10;10.10;;;;;;;7.05;81.01;101839.65;135079;1254;107556;-72
2023/02/13 11:53:39;;;;;;;6.90;4.70;;;;;;;7.06;80.72;101837.11;135025;1254;108751;-72
2023/02/13 11:56:53;;;;;;;148.60;69.40;;;;;;;7.07;80.38;101833.88;135097;1254;107563;-72
2023/02/13 11:59:59;;;;;;;60.90;29.80;;;;;;;7.18;80.82;101827.23;135074;1254;107589;-72
2023/02/13 12:03:24;;;;;;;8.20;5.60;;;;;;;7.25;80.36;101824.90;135061;1254;107369;-72
2023/02/13 12:06:38;;;;;;;36.60;20.50;;;;;;;7.32;79.96;101819.67;135073;1254;107634;-73
2023/02/13 12:09:46;;;;;;;12.60;7.20;;;;;;;7.51;80.38;101815.46;135075;1254;107519;-72
2023/02/13 12:12:56;;;;;;;10.00;6.60;;;;;;;7.66;79.31;101811.17;135073;1254;107530;-72
2023/02/13 12:16:05;;;;;;;11.70;6.30;;;;;;;7.74;79.30;101808.55;135043;1254;107521;-73
2023/02/13 12:19:16;;;;;;;12.60;7.30;;;;;;;7.64;77.51;101808.66;135045;1254;107525;-72
2023/02/13 12:22:36;;;;;;;10.00;6.70;;;;;;;7.51;77.61;101813.88;135034;1254;107374;-73
2023/02/13 12:25:53;;;;;;;6.40;4.50;;;;;;;7.37;77.40;101811.56;135011;1254;107707;-72
2023/02/13 12:29:13;;;;;;;9.60;4.90;;;;;;;7.23;77.05;101807.25;135043;1254;106527;-72
2023/02/13 12:32:21;;;;;;;8.50;5.00;;;;;;;7.18;77.18;101804.38;135052;1254;107261;-72
2023/02/13 12:35:41;;;;;;;7.80;4.50;;;;;;;7.14;78.28;101800.77;135089;1254;108510;-72
2023/02/13 12:39:03;;;;;;;17.20;10.20;;;;;;;7.27;78.71;101796.91;135033;1254;105943;-72
2023/02/13 12:42:29;;;;;;;15.70;9.40;;;;;;;7.40;78.16;101797.95;135067;1254;107626;-72
2023/02/13 12:45:42;;;;;;;8.60;5.00;;;;;;;7.44;77.54;101788.33;135039;1254;107514;-73
2023/02/13 12:48:51;;;;;;;;;;;;;;;7.39;77.33;101786.45;135096;1254;107540;-72
2023/02/13 12:52:11;;;;;;;17.00;8.40;;;;;;;7.43;77.86;101793.48;135033;1254;107574;-72
2023/02/13 12:55:33;;;;;;;8.70;4.90;;;;;;;7.51;77.26;101787.35;135045;1254;108044;-72
2023/02/13 12:58:52;;;;;;;25.50;15.40;;;;;;;7.55;77.85;101783.52;135091;1254;107446;-73
2023/02/13 13:02:23;;;;;;;7.40;4.70;;;;;;;7.60;76.81;101782.16;135108;1254;107617;-72
2023/02/13 13:05:41;;;;;;;32.00;21.80;;;;;;;7.42;76.35;101782.20;135080;1254;107521;-72
2023/02/13 13:09:04;;;;;;;15.10;10.30;;;;;;;7.41;77.50;101772.36;135071;1254;107674;-72
2023/02/13 13:12:19;;;;;;;10.70;6.40;;;;;;;7.45;77.73;101769.27;135076;1254;107506;-73
2023/02/13 13:15:38;;;;;;;10.00;6.10;;;;;;;7.35;76.32;101767.27;135065;1254;108441;-73
2023/02/13 13:19:03;;;;;;;9.80;6.00;;;;;;;7.18;76.36;101757.68;135084;1254;107524;-72
2023/02/13 13:22:14;;;;;;;8.30;5.10;;;;;;;7.14;76.98;101765.73;135018;1254;107526;-72
2023/02/13 13:25:30;;;;;;;7.90;5.40;;;;;;;7.09;77.09;101767.06;135063;1254;107530;-72
2023/02/13 13:28:40;;;;;;;7.20;5.00;;;;;;;7.01;76.27;101762.91;135061;1254;105751;-72
2023/02/13 13:31:52;;;;;;;8.20;5.20;;;;;;;6.97;76.82;101742.31;135051;1254;107453;-72
2023/02/13 13:34:58;;;;;;;8.40;5.30;;;;;;;6.88;76.85;101741.59;135074;1254;107612;-72
2023/02/13 13:38:12;;;;;;;10.30;5.70;;;;;;;6.73;76.93;101739.86;135069;1254;107469;-73
2023/02/13 13:41:28;;;;;;;8.80;5.50;;;;;;;6.65;77.30;101737.49;135105;1254;108679;-72
2023/02/13 13:45:04;;;;;;;8.30;4.80;;;;;;;6.68;77.70;101735.77;135095;1254;108707;-72
2023/02/13 13:48:37;;;;;;;8.10;5.40;;;;;;;6.72;77.27;101725.06;135012;1254;107521;-73
2023/02/13 13:51:42;;;;;;;10.60;5.90;;;;;;;6.76;77.49;101728.38;135050;1254;106691;-72
2023/02/13 13:54:50;;;;;;;16.90;10.90;;;;;;;6.78;77.28;101724.00;135048;1254;107606;-72
2023/02/13 13:58:01;;;;;;;26.00;16.20;;;;;;;6.84;77.41;101730.02;135066;1254;107513;-72
2023/02/13 14:01:29;;;;;;;19.30;11.60;;;;;;;6.78;76.82;101730.92;135070;1254;107225;-72
2023/02/13 14:05:00;;;;;;;15.30;8.70;;;;;;;6.71;77.21;101726.73;135080;1254;107533;-72
2023/02/13 14:08:43;;;;;;;10.00;6.60;;;;;;;6.62;77.53;101730.25;135099;1254;105890;-72
2023/02/13 14:11:49;;;;;;;9.80;6.30;;;;;;;6.65;78.21;101731.48;135026;1254;107546;-72
2023/02/13 14:14:55;;;;;;;11.80;7.20;;;;;;;6.67;78.09;101744.30;135058;1254;107369;-72
2023/02/13 14:18:05;;;;;;;16.30;8.20;;;;;;;6.62;78.43;101750.93;135071;1254;107456;-72
2023/02/13 14:21:12;;;;;;;12.50;7.90;;;;;;;6.66;78.60;101743.23;135086;1254;107541;-72
2023/02/13 14:24:20;;;;;;;13.50;7.80;;;;;;;6.67;78.27;101740.92;135078;1254;107747;-72
2023/02/13 14:27:29;;;;;;;10.90;7.20;;;;;;;6.64;78.51;101742.69;135077;1254;107559;-72
2023/02/13 14:30:39;;;;;;;12.20;7.50;;;;;;;6.57;78.32;101728.95;135076;1254;107694;-72
2023/02/13 14:33:44;;;;;;;13.30;7.00;;;;;;;6.52;78.68;101733.48;135071;1254;107502;-74
2023/02/13 14:37:02;;;;;;;12.30;6.50;;;;;;;6.57;78.87;101732.51;135058;1254;106718;-72
2023/02/13 14:40:42;;;;;;;12.40;7.90;;;;;;;6.58;78.96;101731.77;135017;1254;107433;-72
2023/02/13 14:43:54;;;;;;;16.00;8.00;;;;;;;6.55;79.00;101729.97;135068;1254;107545;-73
2023/02/13 14:47:03;;;;;;;16.10;8.40;;;;;;;6.52;79.00;101728.58;135093;1254;107618;-72
2023/02/13 14:50:15;;;;;;;20.00;9.50;;;;;;;6.46;79.06;101728.17;135049;1254;107529;-72
2023/02/13 14:53:26;;;;;;;19.80;10.80;;;;;;;6.44;79.26;101713.10;135075;1254;106608;-72
2023/02/13 14:56:33;;;;;;;23.40;12.40;;;;;;;6.39;79.36;101697.90;135108;1254;107637;-72